MSC Opera — H3FV — position and weather

sailwx.info

Track history (hours):
 
Tides and Currents Weather Stations Pressure Air Temp Water Temp Dewpoint Dewpoint Depression Visibility Wind Speed Wind Dir Waves Ship Positions

MSC Opera

Operator: Mediterranean Shipping Company

Last reported at 2018-Sep-22 07:02 UTC. Time now 2018-Sep-22 07:08 UTC.
Position N 44°25' E 008°55'.

Length 275 m; draft 6.9 m.

Type: Ship. MMSI: 357627000.

Date/timePositionNaut miles runAvg speedWind from/ knotsBaromVisibWave heightAir tempDewpointWater temp
2018-Sep-22 07:02N 44°25' E 008°55'0 0.0
2018-Sep-22 07:00N 44°25' E 008°55'1 1.7
2018-Sep-22 06:30N 44°24' E 008°55'2 5.2
2018-Sep-22 06:03N 44°22' E 008°58'0 8.5
2018-Sep-22 06:00N 44°22' E 008°58'713.2
2018-Sep-22 05:30N 44°16' E 009°02'919.4
2018-Sep-22 05:03N 44°08' E 009°08'119.3
2018-Sep-22 05:00N 44°08' E 009°09'1019.4
2018-Sep-22 04:30N 43°59' E 009°16'919.4
2018-Sep-22 04:03N 43°52' E 009°22'119.3
2018-Sep-22 04:00N 43°51' E 009°23'1019.4
2018-Sep-22 03:30N 43°43' E 009°29'919.2
2018-Sep-22 03:03N 43°35' E 009°35'119.2
2018-Sep-22 03:00N 43°34' E 009°36'1019.3
2018-Sep-22 02:30N 43°26' E 009°43'919.1
2018-Sep-22 02:03N 43°18' E 009°49'119.0
2018-Sep-22 02:00N 43°18' E 009°49'918.8
2018-Sep-22 01:30N 43°09' E 009°55'818.7
2018-Sep-22 01:03N 43°01' E 009°59'119.2
2018-Sep-22 01:00N 43°00' E 009°59'1019.0
2018-Sep-22 00:30N 42°51' E 009°59'919.0
2018-Sep-22 00:03N 42°43' E 010°05'119.0
2018-Sep-22 00:00N 42°43' E 010°06'1118.9
2018-Sep-21 23:27N 42°35' E 010°16'819.3
2018-Sep-21 23:03N 42°31' E 010°24'119.3
2018-Sep-21 23:00N 42°30' E 010°25'1019.1
2018-Sep-21 22:30N 42°24' E 010°35'1319.2
2018-Sep-21 21:48N 42°16' E 010°49'15118.9
2018-Sep-21 13:49N 40°49' E 013°34'918.8
2018-Sep-21 13:21N 40°43' E 013°44'618.7
2018-Sep-21 13:03N 40°40' E 013°50'118.7
2018-Sep-21 13:00N 40°39' E 013°51'918.3
2018-Sep-21 12:30N 40°39' E 014°03'818.4
2018-Sep-21 12:03N 40°44' E 014°11'118.8
2018-Sep-21 12:00N 40°45' E 014°12'612.4
2018-Sep-21 11:30N 40°50' E 014°16'0 0.7
2018-Sep-21 11:01N 40°51' E 014°16'0 0.0
2018-Sep-21 10:58N 40°51' E 014°16'0 0.0
2018-Sep-21 10:25N 40°51' E 014°16'0 0.0
2018-Sep-21 10:01N 40°51' E 014°16'0 0.0
2018-Sep-21 09:58N 40°51' E 014°16'0 0.0
2018-Sep-21 09:28N 40°51' E 014°16'0 0.0
2018-Sep-21 09:01N 40°51' E 014°16'0 0.0
2018-Sep-21 08:58N 40°51' E 014°16'0 0.0
2018-Sep-21 08:30N 40°51' E 014°16'0 0.0
2018-Sep-21 08:00N 40°51' E 014°16'0 0.0
2018-Sep-21 07:30N 40°51' E 014°16'0 0.0
2018-Sep-21 07:03N 40°51' E 014°16'0 0.0
2018-Sep-21 07:00N 40°51' E 014°16'0 0.0
2018-Sep-21 06:30N 40°51' E 014°16'0 0.0
2018-Sep-21 06:02N 40°51' E 014°16'0 0.0
2018-Sep-21 05:59N 40°51' E 014°16'0 0.0
2018-Sep-21 05:29N 40°51' E 014°16'0 0.0
2018-Sep-21 05:02N 40°51' E 014°16'0 0.0
2018-Sep-21 04:59N 40°51' E 014°16'0 0.0
2018-Sep-21 04:29N 40°51' E 014°16'0 0.1
2018-Sep-21 04:03N 40°50' E 014°16'0 1.4
2018-Sep-21 04:00N 40°50' E 014°16'2 3.9
2018-Sep-21 03:30N 40°49' E 014°17'714.6
2018-Sep-21 03:04N 40°43' E 014°14'116.0
2018-Sep-21 03:00N 40°42' E 014°13'815.0
2018-Sep-21 02:30N 40°35' E 014°08'612.7
2018-Sep-21 02:02N 40°30' E 014°11'113.7
2018-Sep-21 01:59N 40°29' E 014°11'713.7
2018-Sep-21 01:30N 40°23' E 014°16'714.5
2018-Sep-21 01:03N 40°18' E 014°20'115.9
2018-Sep-21 01:00N 40°17' E 014°21'815.9
2018-Sep-21 00:29N 40°10' E 014°26'9615.7
2018-Sep-20 18:23N 38°45' E 015°24'615.9
2018-Sep-20 18:02N 38°40' E 015°27'115.7
2018-Sep-20 17:59N 38°39' E 015°28'1015.7
2018-Sep-20 17:21N 38°31' E 015°34'515.7
2018-Sep-20 17:03N 38°27' E 015°37'115.9
2018-Sep-20 17:00N 38°26' E 015°38'815.4
2018-Sep-20 16:30N 38°19' E 015°42'614.5
2018-Sep-20 16:03N 38°14' E 015°38'116.4
2018-Sep-20 16:00N 38°14' E 015°37'3 6.6
2018-Sep-20 15:30N 38°12' E 015°33'0 0.0
2018-Sep-20 14:54N 38°12' E 015°33'0 0.0
2018-Sep-20 14:30N 38°12' E 015°33'0 0.0
2018-Sep-20 13:59N 38°12' E 015°33'0 0.0
2018-Sep-20 13:29N 38°12' E 015°33'0 0.0
2018-Sep-20 12:59N 38°12' E 015°33'0 0.0
2018-Sep-20 12:29N 38°12' E 015°33'0 0.0
2018-Sep-20 11:46N 38°12' E 015°33'0 0.0
2018-Sep-20 11:28N 38°12' E 015°33'0 0.0
2018-Sep-20 10:52N 38°12' E 015°33'0 0.0
2018-Sep-20 10:28N 38°12' E 015°33'0 0.0
2018-Sep-20 09:58N 38°12' E 015°33'0 0.0
2018-Sep-20 09:27N 38°12' E 015°33'0 0.0
2018-Sep-20 08:57N 38°12' E 015°33'0 0.0
2018-Sep-20 08:27N 38°12' E 015°33'0 0.0
2018-Sep-20 08:03N 38°12' E 015°33'0 0.0
2018-Sep-20 07:45N 38°12' E 015°33'0 0.0
2018-Sep-20 07:26N 38°12' E 015°33'0 0.0
2018-Sep-20 06:56N 38°12' E 015°33'0 0.0
2018-Sep-20 06:27N 38°12' E 015°33'1 2.8
2018-Sep-20 06:03N 38°13' E 015°34'111.1
2018-Sep-20 06:00N 38°13' E 015°35'5 9.4
2018-Sep-20 05:30N 38°09' E 015°37'3 7.3
2018-Sep-20 05:03N 38°05' E 015°36'1 7.7
2018-Sep-20 04:57N 38°04' E 015°36'4 8.2
2018-Sep-20 04:28N 38°01' E 015°35'4 9.4
2018-Sep-20 04:03N 37°57' E 015°35'111.5
2018-Sep-20 04:00N 37°56' E 015°35'612.7
2018-Sep-20 03:30N 37°50' E 015°34'812.6
2018-Sep-20 02:54N 37°42' E 015°33'512.7
2018-Sep-20 02:29N 37°37' E 015°33'  
2018-Sep-16 15:09N 43°06' E 005°09'415.4
2018-Sep-16 14:53N 43°10' E 005°10'615.3
2018-Sep-16 14:28N 43°16' E 005°14'6 0.7
2018-Sep-16 05:22N 43°21' E 005°19'3 8.1
2018-Sep-16 05:03N 43°19' E 005°17'011.0
2018-Sep-16 05:00N 43°19' E 005°17'6613.4
2018-Sep-16 00:05N 43°05' E 006°45'016.5
2018-Sep-16 00:03N 43°05' E 006°46'116.5
2018-Sep-16 00:00N 43°05' E 006°47'816.4
2018-Sep-15 23:30N 43°10' E 006°57'716.3
2018-Sep-15 23:03N 43°13' E 007°05'116.1
2018-Sep-15 23:00N 43°14' E 007°06'816.4
2018-Sep-15 22:30N 43°18' E 007°16'716.3
2018-Sep-15 22:03N 43°22' E 007°25'116.3
2018-Sep-15 22:00N 43°22' E 007°26'816.2
2018-Sep-15 21:30N 43°26' E 007°35'716.2
2018-Sep-15 21:03N 43°30' E 007°44'115.9
2018-Sep-15 21:00N 43°30' E 007°45'816.0
2018-Sep-15 20:30N 43°34' E 007°54'715.7
2018-Sep-15 20:03N 43°38' E 008°03'115.9
2018-Sep-15 20:00N 43°38' E 008°04'815.8
2018-Sep-15 19:30N 43°42' E 008°13'715.5
2018-Sep-15 19:03N 43°46' E 008°21'115.8
2018-Sep-15 19:00N 43°47' E 008°22'815.6
2018-Sep-15 18:28N 43°54' E 008°29'615.6
2018-Sep-15 18:03N 43°59' E 008°35'115.5
2018-Sep-15 18:00N 43°59' E 008°35'815.4
2018-Sep-15 17:30N 44°05' E 008°42'715.2
2018-Sep-15 17:03N 44°11' E 008°48'115.0
2018-Sep-15 17:00N 44°11' E 008°48'815.2
2018-Sep-15 16:30N 44°17' E 008°55'613.1
2018-Sep-15 16:03N 44°23' E 008°57'0 9.2
2018-Sep-15 16:00N 44°23' E 008°56'2 2.9
2018-Sep-15 15:26N 44°25' E 008°55'0 0.0
2018-Sep-15 15:02N 44°25' E 008°55'0 0.0
2018-Sep-15 14:29N 44°25' E 008°55'0 0.0
2018-Sep-15 13:59N 44°25' E 008°55'0 0.0
2018-Sep-15 13:28N 44°25' E 008°55'0 0.0
2018-Sep-15 13:01N 44°25' E 008°55'0 0.0
2018-Sep-15 12:58N 44°25' E 008°55'0 0.0
2018-Sep-15 12:28N 44°25' E 008°55'0 0.0
2018-Sep-15 12:01N 44°25' E 008°55'0 0.0
2018-Sep-15 11:58N 44°25' E 008°55'0 0.0
2018-Sep-15 11:28N 44°25' E 008°55'0 0.0
2018-Sep-15 11:03N 44°25' E 008°55'0 0.0
2018-Sep-15 10:57N 44°25' E 008°55'0 0.0
2018-Sep-15 10:30N 44°25' E 008°55'0 0.0
2018-Sep-15 10:03N 44°25' E 008°55'0 0.0
2018-Sep-15 10:00N 44°25' E 008°55'0 0.0
2018-Sep-15 09:30N 44°25' E 008°55'0 0.0
2018-Sep-15 09:03N 44°25' E 008°55'0 0.0
2018-Sep-15 08:59N 44°25' E 008°55'0 0.0
2018-Sep-15 08:29N 44°25' E 008°55'0 0.0
2018-Sep-15 08:02N 44°25' E 008°55'0 0.0
2018-Sep-15 07:59N 44°25' E 008°55'0 0.0
2018-Sep-15 07:29N 44°25' E 008°55'0 0.0
2018-Sep-15 07:02N 44°25' E 008°55'0 0.0
2018-Sep-15 06:59N 44°25' E 008°55'0 0.0
2018-Sep-15 06:28N 44°25' E 008°55'0 0.0
2018-Sep-15 06:01N 44°25' E 008°55'0 0.0
2018-Sep-15 05:58N 44°25' E 008°55'0 0.0
2018-Sep-15 05:28N 44°25' E 008°55'0 0.0
2018-Sep-15 05:01N 44°25' E 008°55'0 0.0
2018-Sep-15 04:59N 44°25' E 008°55'1 1.8
2018-Sep-15 04:31N 44°24' E 008°55'3 7.3
2018-Sep-15 04:03N 44°21' E 008°58'111.8
2018-Sep-15 04:00N 44°21' E 008°58'5 9.6
2018-Sep-15 03:30N 44°16' E 009°01'4 9.5
2018-Sep-15 03:03N 44°12' E 009°03'0 9.6
2018-Sep-15 03:00N 44°12' E 009°03'5 9.6
2018-Sep-15 02:30N 44°07' E 009°05'4 9.0
2018-Sep-15 02:03N 44°03' E 009°08'0 8.9
2018-Sep-15 02:00N 44°03' E 009°08'4 8.9
2018-Sep-15 01:30N 43°59' E 009°10'4 9.0
2018-Sep-15 01:03N 43°55' E 009°12'0 9.5
2018-Sep-15 01:00N 43°55' E 009°12'5 9.4
2018-Sep-15 00:30N 43°50' E 009°15'4 9.5
2018-Sep-15 00:03N 43°47' E 009°18'0 9.3
2018-Sep-15 00:00N 43°47' E 009°19'5 9.0
2018-Sep-14 23:30N 43°43' E 009°22'4 9.0
2018-Sep-14 23:03N 43°39' E 009°25'0 8.9
2018-Sep-14 23:00N 43°39' E 009°26'5 9.2
2018-Sep-14 22:30N 43°35' E 009°29'4 9.3
2018-Sep-14 22:03N 43°32' E 009°32'0 9.5
2018-Sep-14 22:00N 43°31' E 009°33'5 9.3
2018-Sep-14 21:30N 43°27' E 009°36'4 9.2
2018-Sep-14 21:03N 43°24' E 009°40'0 9.2
2018-Sep-14 21:00N 43°24' E 009°40'5 9.2
2018-Sep-14 20:30N 43°20' E 009°43'4 8.8
2018-Sep-14 20:03N 43°18' E 009°48'0 9.2
2018-Sep-14 20:00N 43°18' E 009°49'5 9.3
2018-Sep-14 19:30N 43°18' E 009°55'4 8.9
2018-Sep-14 19:03N 43°20' E 010°00'0 9.5
2018-Sep-14 19:00N 43°21' E 010°01'5 9.3
2018-Sep-14 18:30N 43°24' E 010°05'4 9.4
2018-Sep-14 18:03N 43°27' E 010°08'0 9.4
2018-Sep-14 18:00N 43°28' E 010°09'5 9.2
2018-Sep-14 17:30N 43°31' E 010°13'4 8.2
2018-Sep-14 17:03N 43°33' E 010°17'0 7.0
2018-Sep-14 17:00N 43°33' E 010°18'0 0.7
2018-Sep-14 16:30N 43°33' E 010°18'0 0.0
2018-Sep-14 16:03N 43°33' E 010°18'0 0.0
2018-Sep-14 16:00N 43°33' E 010°18'0 0.0
2018-Sep-14 15:27N 43°33' E 010°18'0 0.0
2018-Sep-14 14:54N 43°33' E 010°18'0 0.0
2018-Sep-14 14:30N 43°33' E 010°18'0 0.0
2018-Sep-14 13:56N 43°33' E 010°18'0 0.0
2018-Sep-14 13:29N 43°33' E 010°18'0 0.0
2018-Sep-14 13:02N 43°33' E 010°18'0 0.0
2018-Sep-14 12:53N 43°33' E 010°18'0 0.0
2018-Sep-14 12:29N 43°33' E 010°18'0 0.0
2018-Sep-14 12:01N 43°33' E 010°18'0 0.0
2018-Sep-14 11:58N 43°33' E 010°18'0 0.0
2018-Sep-14 11:28N 43°33' E 010°18'0 0.0
2018-Sep-14 11:01N 43°33' E 010°18'0 0.0
2018-Sep-14 10:58N 43°33' E 010°18'0 0.0
2018-Sep-14 10:28N 43°33' E 010°18'0 0.0
2018-Sep-14 10:01N 43°33' E 010°18'0 0.0
2018-Sep-14 09:58N 43°33' E 010°18'0 0.0
2018-Sep-14 09:30N 43°33' E 010°18'0 0.0
2018-Sep-14 09:00N 43°33' E 010°18'0 0.0
2018-Sep-14 08:30N 43°33' E 010°18'0 0.0
2018-Sep-14 08:03N 43°33' E 010°18'0 0.0
2018-Sep-14 08:00N 43°33' E 010°18'0 0.0
2018-Sep-14 07:29N 43°33' E 010°18'0 0.0
2018-Sep-14 07:02N 43°33' E 010°18'0 0.0
2018-Sep-14 06:59N 43°33' E 010°18'0 0.0
2018-Sep-14 06:29N 43°33' E 010°18'0 0.0
2018-Sep-14 06:02N 43°33' E 010°18'0 0.0
2018-Sep-14 05:59N 43°33' E 010°18'0 0.0
2018-Sep-14 05:29N 43°33' E 010°18'0 0.8
2018-Sep-14 05:04N 43°33' E 010°18'0 5.9
2018-Sep-14 05:00N 43°33' E 010°17'4 9.1
2018-Sep-14 04:30N 43°29' E 010°14'613.3
2018-Sep-14 04:03N 43°24' E 010°11'113.7
2018-Sep-14 04:00N 43°23' E 010°10'713.5
2018-Sep-14 03:30N 43°17' E 010°07'613.4
2018-Sep-14 03:03N 43°11' E 010°05'113.5
2018-Sep-14 02:59N 43°10' E 010°05'813.2
2018-Sep-14 02:21N 43°02' E 010°02'6913.2
2018-Sep-13 21:08N 41°54' E 009°49'213.0
2018-Sep-13 21:00N 41°52' E 009°49'178 6.7
2018-Sep-12 18:33N 40°26' E 006°21'17317.1
2018-Sep-12 08:26N 39°06' E 003°01'1716.9
2018-Sep-12 07:26N 39°03' E 002°40'  
Track history (hours):
 
Tides and Currents Weather Stations Pressure Air Temp Water Temp Dewpoint Dewpoint Depression Visibility Wind Speed Wind Dir Waves Ship Positions

MSC Opera

Operator: Mediterranean Shipping Company

Last reported at 2018-Sep-22 07:02 UTC. Time now 2018-Sep-22 07:08 UTC.
Position N 44°25' E 008°55'.

Length 275 m; draft 6.9 m.

Type: Ship. MMSI: 357627000.

Date/timePositionNaut miles runAvg speedWind from/ knotsBaromVisibWave heightAir tempDewpointWater temp
2018-Sep-22 07:02N 44°25' E 008°55'0 0.0
2018-Sep-22 07:00N 44°25' E 008°55'1 1.7
2018-Sep-22 06:30N 44°24' E 008°55'2 5.2
2018-Sep-22 06:03N 44°22' E 008°58'0 8.5
2018-Sep-22 06:00N 44°22' E 008°58'713.2
2018-Sep-22 05:30N 44°16' E 009°02'919.4
2018-Sep-22 05:03N 44°08' E 009°08'119.3
2018-Sep-22 05:00N 44°08' E 009°09'1019.4
2018-Sep-22 04:30N 43°59' E 009°16'919.4
2018-Sep-22 04:03N 43°52' E 009°22'119.3
2018-Sep-22 04:00N 43°51' E 009°23'1019.4
2018-Sep-22 03:30N 43°43' E 009°29'919.2
2018-Sep-22 03:03N 43°35' E 009°35'119.2
2018-Sep-22 03:00N 43°34' E 009°36'1019.3
2018-Sep-22 02:30N 43°26' E 009°43'919.1
2018-Sep-22 02:03N 43°18' E 009°49'119.0
2018-Sep-22 02:00N 43°18' E 009°49'918.8
2018-Sep-22 01:30N 43°09' E 009°55'818.7
2018-Sep-22 01:03N 43°01' E 009°59'119.2
2018-Sep-22 01:00N 43°00' E 009°59'1019.0
2018-Sep-22 00:30N 42°51' E 009°59'919.0
2018-Sep-22 00:03N 42°43' E 010°05'119.0
2018-Sep-22 00:00N 42°43' E 010°06'1118.9
2018-Sep-21 23:27N 42°35' E 010°16'819.3
2018-Sep-21 23:03N 42°31' E 010°24'119.3
2018-Sep-21 23:00N 42°30' E 010°25'1019.1
2018-Sep-21 22:30N 42°24' E 010°35'1319.2
2018-Sep-21 21:48N 42°16' E 010°49'15118.9
2018-Sep-21 13:49N 40°49' E 013°34'918.8
2018-Sep-21 13:21N 40°43' E 013°44'618.7
2018-Sep-21 13:03N 40°40' E 013°50'118.7
2018-Sep-21 13:00N 40°39' E 013°51'918.3
2018-Sep-21 12:30N 40°39' E 014°03'818.4
2018-Sep-21 12:03N 40°44' E 014°11'118.8
2018-Sep-21 12:00N 40°45' E 014°12'612.4
2018-Sep-21 11:30N 40°50' E 014°16'0 0.7
2018-Sep-21 11:01N 40°51' E 014°16'0 0.0
2018-Sep-21 10:58N 40°51' E 014°16'0 0.0
2018-Sep-21 10:25N 40°51' E 014°16'0 0.0
2018-Sep-21 10:01N 40°51' E 014°16'0 0.0
2018-Sep-21 09:58N 40°51' E 014°16'0 0.0
2018-Sep-21 09:28N 40°51' E 014°16'0 0.0
2018-Sep-21 09:01N 40°51' E 014°16'0 0.0
2018-Sep-21 08:58N 40°51' E 014°16'0 0.0
2018-Sep-21 08:30N 40°51' E 014°16'0 0.0
2018-Sep-21 08:00N 40°51' E 014°16'0 0.0
2018-Sep-21 07:30N 40°51' E 014°16'0 0.0
2018-Sep-21 07:03N 40°51' E 014°16'0 0.0
2018-Sep-21 07:00N 40°51' E 014°16'0 0.0
2018-Sep-21 06:30N 40°51' E 014°16'0 0.0
2018-Sep-21 06:02N 40°51' E 014°16'0 0.0
2018-Sep-21 05:59N 40°51' E 014°16'0 0.0
2018-Sep-21 05:29N 40°51' E 014°16'0 0.0
2018-Sep-21 05:02N 40°51' E 014°16'0 0.0
2018-Sep-21 04:59N 40°51' E 014°16'0 0.0
2018-Sep-21 04:29N 40°51' E 014°16'0 0.1
2018-Sep-21 04:03N 40°50' E 014°16'0 1.4
2018-Sep-21 04:00N 40°50' E 014°16'2 3.9
2018-Sep-21 03:30N 40°49' E 014°17'714.6
2018-Sep-21 03:04N 40°43' E 014°14'116.0
2018-Sep-21 03:00N 40°42' E 014°13'815.0
2018-Sep-21 02:30N 40°35' E 014°08'612.7
2018-Sep-21 02:02N 40°30' E 014°11'113.7
2018-Sep-21 01:59N 40°29' E 014°11'713.7
2018-Sep-21 01:30N 40°23' E 014°16'714.5
2018-Sep-21 01:03N 40°18' E 014°20'115.9
2018-Sep-21 01:00N 40°17' E 014°21'815.9
2018-Sep-21 00:29N 40°10' E 014°26'9615.7
2018-Sep-20 18:23N 38°45' E 015°24'615.9
2018-Sep-20 18:02N 38°40' E 015°27'115.7
2018-Sep-20 17:59N 38°39' E 015°28'1015.7
2018-Sep-20 17:21N 38°31' E 015°34'515.7
2018-Sep-20 17:03N 38°27' E 015°37'115.9
2018-Sep-20 17:00N 38°26' E 015°38'815.4
2018-Sep-20 16:30N 38°19' E 015°42'614.5
2018-Sep-20 16:03N 38°14' E 015°38'116.4
2018-Sep-20 16:00N 38°14' E 015°37'3 6.6
2018-Sep-20 15:30N 38°12' E 015°33'0 0.0
2018-Sep-20 14:54N 38°12' E 015°33'0 0.0
2018-Sep-20 14:30N 38°12' E 015°33'0 0.0
2018-Sep-20 13:59N 38°12' E 015°33'0 0.0
2018-Sep-20 13:29N 38°12' E 015°33'0 0.0
2018-Sep-20 12:59N 38°12' E 015°33'0 0.0
2018-Sep-20 12:29N 38°12' E 015°33'0 0.0
2018-Sep-20 11:46N 38°12' E 015°33'0 0.0
2018-Sep-20 11:28N 38°12' E 015°33'0 0.0
2018-Sep-20 10:52N 38°12' E 015°33'0 0.0
2018-Sep-20 10:28N 38°12' E 015°33'0 0.0
2018-Sep-20 09:58N 38°12' E 015°33'0 0.0
2018-Sep-20 09:27N 38°12' E 015°33'0 0.0
2018-Sep-20 08:57N 38°12' E 015°33'0 0.0
2018-Sep-20 08:27N 38°12' E 015°33'0 0.0
2018-Sep-20 08:03N 38°12' E 015°33'0 0.0
2018-Sep-20 07:45N 38°12' E 015°33'0 0.0
2018-Sep-20 07:26N 38°12' E 015°33'0 0.0
2018-Sep-20 06:56N 38°12' E 015°33'0 0.0
2018-Sep-20 06:27N 38°12' E 015°33'1 2.8
2018-Sep-20 06:03N 38°13' E 015°34'111.1
2018-Sep-20 06:00N 38°13' E 015°35'5 9.4
2018-Sep-20 05:30N 38°09' E 015°37'3 7.3
2018-Sep-20 05:03N 38°05' E 015°36'1 7.7
2018-Sep-20 04:57N 38°04' E 015°36'4 8.2
2018-Sep-20 04:28N 38°01' E 015°35'4 9.4
2018-Sep-20 04:03N 37°57' E 015°35'111.5
2018-Sep-20 04:00N 37°56' E 015°35'612.7
2018-Sep-20 03:30N 37°50' E 015°34'812.6
2018-Sep-20 02:54N 37°42' E 015°33'512.7
2018-Sep-20 02:29N 37°37' E 015°33'  
2018-Sep-16 15:09N 43°06' E 005°09'415.4
2018-Sep-16 14:53N 43°10' E 005°10'615.3
2018-Sep-16 14:28N 43°16' E 005°14'6 0.7
2018-Sep-16 05:22N 43°21' E 005°19'3 8.1
2018-Sep-16 05:03N 43°19' E 005°17'011.0
2018-Sep-16 05:00N 43°19' E 005°17'6613.4
2018-Sep-16 00:05N 43°05' E 006°45'016.5
2018-Sep-16 00:03N 43°05' E 006°46'116.5
2018-Sep-16 00:00N 43°05' E 006°47'816.4
2018-Sep-15 23:30N 43°10' E 006°57'716.3
2018-Sep-15 23:03N 43°13' E 007°05'116.1
2018-Sep-15 23:00N 43°14' E 007°06'816.4
2018-Sep-15 22:30N 43°18' E 007°16'716.3
2018-Sep-15 22:03N 43°22' E 007°25'116.3
2018-Sep-15 22:00N 43°22' E 007°26'816.2
2018-Sep-15 21:30N 43°26' E 007°35'716.2
2018-Sep-15 21:03N 43°30' E 007°44'115.9
2018-Sep-15 21:00N 43°30' E 007°45'816.0
2018-Sep-15 20:30N 43°34' E 007°54'715.7
2018-Sep-15 20:03N 43°38' E 008°03'115.9
2018-Sep-15 20:00N 43°38' E 008°04'815.8
2018-Sep-15 19:30N 43°42' E 008°13'715.5
2018-Sep-15 19:03N 43°46' E 008°21'115.8
2018-Sep-15 19:00N 43°47' E 008°22'815.6
2018-Sep-15 18:28N 43°54' E 008°29'615.6
2018-Sep-15 18:03N 43°59' E 008°35'115.5
2018-Sep-15 18:00N 43°59' E 008°35'815.4
2018-Sep-15 17:30N 44°05' E 008°42'715.2
2018-Sep-15 17:03N 44°11' E 008°48'115.0
2018-Sep-15 17:00N 44°11' E 008°48'815.2
2018-Sep-15 16:30N 44°17' E 008°55'613.1
2018-Sep-15 16:03N 44°23' E 008°57'0 9.2
2018-Sep-15 16:00N 44°23' E 008°56'2 2.9
2018-Sep-15 15:26N 44°25' E 008°55'0 0.0
2018-Sep-15 15:02N 44°25' E 008°55'0 0.0
2018-Sep-15 14:29N 44°25' E 008°55'0 0.0
2018-Sep-15 13:59N 44°25' E 008°55'0 0.0
2018-Sep-15 13:28N 44°25' E 008°55'0 0.0
2018-Sep-15 13:01N 44°25' E 008°55'0 0.0
2018-Sep-15 12:58N 44°25' E 008°55'0 0.0
2018-Sep-15 12:28N 44°25' E 008°55'0 0.0
2018-Sep-15 12:01N 44°25' E 008°55'0 0.0
2018-Sep-15 11:58N 44°25' E 008°55'0 0.0
2018-Sep-15 11:28N 44°25' E 008°55'0 0.0
2018-Sep-15 11:03N 44°25' E 008°55'0 0.0
2018-Sep-15 10:57N 44°25' E 008°55'0 0.0
2018-Sep-15 10:30N 44°25' E 008°55'0 0.0
2018-Sep-15 10:03N 44°25' E 008°55'0 0.0
2018-Sep-15 10:00N 44°25' E 008°55'0 0.0
2018-Sep-15 09:30N 44°25' E 008°55'0 0.0
2018-Sep-15 09:03N 44°25' E 008°55'0 0.0
2018-Sep-15 08:59N 44°25' E 008°55'0 0.0
2018-Sep-15 08:29N 44°25' E 008°55'0 0.0
2018-Sep-15 08:02N 44°25' E 008°55'0 0.0
2018-Sep-15 07:59N 44°25' E 008°55'0 0.0
2018-Sep-15 07:29N 44°25' E 008°55'0 0.0
2018-Sep-15 07:02N 44°25' E 008°55'0 0.0
2018-Sep-15 06:59N 44°25' E 008°55'0 0.0
2018-Sep-15 06:28N 44°25' E 008°55'0 0.0
2018-Sep-15 06:01N 44°25' E 008°55'0 0.0
2018-Sep-15 05:58N 44°25' E 008°55'0 0.0
2018-Sep-15 05:28N 44°25' E 008°55'0 0.0
2018-Sep-15 05:01N 44°25' E 008°55'0 0.0
2018-Sep-15 04:59N 44°25' E 008°55'1 1.8
2018-Sep-15 04:31N 44°24' E 008°55'3 7.3
2018-Sep-15 04:03N 44°21' E 008°58'111.8
2018-Sep-15 04:00N 44°21' E 008°58'5 9.6
2018-Sep-15 03:30N 44°16' E 009°01'4 9.5
2018-Sep-15 03:03N 44°12' E 009°03'0 9.6
2018-Sep-15 03:00N 44°12' E 009°03'5 9.6
2018-Sep-15 02:30N 44°07' E 009°05'4 9.0
2018-Sep-15 02:03N 44°03' E 009°08'0 8.9
2018-Sep-15 02:00N 44°03' E 009°08'4 8.9
2018-Sep-15 01:30N 43°59' E 009°10'4 9.0
2018-Sep-15 01:03N 43°55' E 009°12'0 9.5
2018-Sep-15 01:00N 43°55' E 009°12'5 9.4
2018-Sep-15 00:30N 43°50' E 009°15'4 9.5
2018-Sep-15 00:03N 43°47' E 009°18'0 9.3
2018-Sep-15 00:00N 43°47' E 009°19'5 9.0
2018-Sep-14 23:30N 43°43' E 009°22'4 9.0
2018-Sep-14 23:03N 43°39' E 009°25'0 8.9
2018-Sep-14 23:00N 43°39' E 009°26'5 9.2
2018-Sep-14 22:30N 43°35' E 009°29'4 9.3
2018-Sep-14 22:03N 43°32' E 009°32'0 9.5
2018-Sep-14 22:00N 43°31' E 009°33'5 9.3
2018-Sep-14 21:30N 43°27' E 009°36'4 9.2
2018-Sep-14 21:03N 43°24' E 009°40'0 9.2
2018-Sep-14 21:00N 43°24' E 009°40'5 9.2
2018-Sep-14 20:30N 43°20' E 009°43'4 8.8
2018-Sep-14 20:03N 43°18' E 009°48'0 9.2
2018-Sep-14 20:00N 43°18' E 009°49'5 9.3
2018-Sep-14 19:30N 43°18' E 009°55'4 8.9
2018-Sep-14 19:03N 43°20' E 010°00'0 9.5
2018-Sep-14 19:00N 43°21' E 010°01'5 9.3
2018-Sep-14 18:30N 43°24' E 010°05'4 9.4
2018-Sep-14 18:03N 43°27' E 010°08'0 9.4
2018-Sep-14 18:00N 43°28' E 010°09'5 9.2
2018-Sep-14 17:30N 43°31' E 010°13'4 8.2
2018-Sep-14 17:03N 43°33' E 010°17'0 7.0
2018-Sep-14 17:00N 43°33' E 010°18'0 0.7
2018-Sep-14 16:30N 43°33' E 010°18'0 0.0
2018-Sep-14 16:03N 43°33' E 010°18'0 0.0
2018-Sep-14 16:00N 43°33' E 010°18'0 0.0
2018-Sep-14 15:27N 43°33' E 010°18'0 0.0
2018-Sep-14 14:54N 43°33' E 010°18'0 0.0
2018-Sep-14 14:30N 43°33' E 010°18'0 0.0
2018-Sep-14 13:56N 43°33' E 010°18'0 0.0
2018-Sep-14 13:29N 43°33' E 010°18'0 0.0
2018-Sep-14 13:02N 43°33' E 010°18'0 0.0
2018-Sep-14 12:53N 43°33' E 010°18'0 0.0
2018-Sep-14 12:29N 43°33' E 010°18'0 0.0
2018-Sep-14 12:01N 43°33' E 010°18'0 0.0
2018-Sep-14 11:58N 43°33' E 010°18'0 0.0
2018-Sep-14 11:28N 43°33' E 010°18'0 0.0
2018-Sep-14 11:01N 43°33' E 010°18'0 0.0
2018-Sep-14 10:58N 43°33' E 010°18'0 0.0
2018-Sep-14 10:28N 43°33' E 010°18'0 0.0
2018-Sep-14 10:01N 43°33' E 010°18'0 0.0
2018-Sep-14 09:58N 43°33' E 010°18'0 0.0
2018-Sep-14 09:30N 43°33' E 010°18'0 0.0
2018-Sep-14 09:00N 43°33' E 010°18'0 0.0
2018-Sep-14 08:30N 43°33' E 010°18'0 0.0
2018-Sep-14 08:03N 43°33' E 010°18'0 0.0
2018-Sep-14 08:00N 43°33' E 010°18'0 0.0
2018-Sep-14 07:29N 43°33' E 010°18'0 0.0
2018-Sep-14 07:02N 43°33' E 010°18'0 0.0
2018-Sep-14 06:59N 43°33' E 010°18'0 0.0
2018-Sep-14 06:29N 43°33' E 010°18'0 0.0
2018-Sep-14 06:02N 43°33' E 010°18'0 0.0
2018-Sep-14 05:59N 43°33' E 010°18'0 0.0
2018-Sep-14 05:29N 43°33' E 010°18'0 0.8
2018-Sep-14 05:04N 43°33' E 010°18'0 5.9
2018-Sep-14 05:00N 43°33' E 010°17'4 9.1
2018-Sep-14 04:30N 43°29' E 010°14'613.3
2018-Sep-14 04:03N 43°24' E 010°11'113.7
2018-Sep-14 04:00N 43°23' E 010°10'713.5
2018-Sep-14 03:30N 43°17' E 010°07'613.4
2018-Sep-14 03:03N 43°11' E 010°05'113.5
2018-Sep-14 02:59N 43°10' E 010°05'813.2
2018-Sep-14 02:21N 43°02' E 010°02'6913.2
2018-Sep-13 21:08N 41°54' E 009°49'213.0
2018-Sep-13 21:00N 41°52' E 009°49'178 6.7
2018-Sep-12 18:33N 40°26' E 006°21'17317.1
2018-Sep-12 08:26N 39°06' E 003°01'1716.9
2018-Sep-12 07:26N 39°03' E 002°40'  

Dump ship's entire track history